Acton, Massachusetts
Current Conditions -  °F | °C
As of 7:56 PM on Thursday 18 Dec 2014 (Local Time) from KBED Reporting Station
Overcast Overcast  
Wind Chill: 31°   Ceiling: 3500
Heat Index: 37°   Visibility: 10mi
Dew Point: 27°   Wind: 8mph
Humidity: 67%   Direction: 270°W
Pressure: 29.85"   Gusts: NA
Location:  42.49°N, 71.43°W
Report Text: KBED 190056Z 27007KT 10SM OVC035 03/M03 A2985 RMK AO2 SLP124 T00281028
Loading
Personal Weather Stations






























Interactive Weather Map New forecast layout! Learn more

10-Day Weather Forecast

Advertisements
Track Severe Weather on mobile